sensor_id;sensor_type;location;lat;lon;timestamp;P1;durP1;ratioP1;P2;durP2;ratioP2
28958;SDS011;16066;0.000;0.000;2022-09-27T00:00:32;7.33;;;5.50;;
28958;SDS011;16066;0.000;0.000;2022-09-27T00:02:58;9.00;;;6.20;;
28958;SDS011;16066;0.000;0.000;2022-09-27T00:05:25;8.93;;;6.10;;
28958;SDS011;16066;0.000;0.000;2022-09-27T00:07:51;8.20;;;6.10;;
28958;SDS011;16066;0.000;0.000;2022-09-27T00:10:16;7.00;;;5.53;;
28958;SDS011;16066;0.000;0.000;2022-09-27T00:12:42;9.20;;;6.10;;
28958;SDS011;16066;0.000;0.000;2022-09-27T00:15:07;8.73;;;6.47;;
28958;SDS011;16066;0.000;0.000;2022-09-27T00:17:34;8.07;;;5.60;;
28958;SDS011;16066;0.000;0.000;2022-09-27T00:20:01;6.90;;;5.47;;
28958;SDS011;16066;0.000;0.000;2022-09-27T00:22:27;10.20;;;6.10;;
28958;SDS011;16066;0.000;0.000;2022-09-27T00:24:53;11.47;;;6.00;;
28958;SDS011;16066;0.000;0.000;2022-09-27T00:27:19;8.63;;;6.53;;
28958;SDS011;16066;0.000;0.000;2022-09-27T00:29:45;8.30;;;6.50;;
28958;SDS011;16066;0.000;0.000;2022-09-27T00:32:11;10.70;;;7.73;;
28958;SDS011;16066;0.000;0.000;2022-09-27T00:34:38;8.87;;;6.47;;
28958;SDS011;16066;0.000;0.000;2022-09-27T00:37:05;10.30;;;6.93;;
28958;SDS011;16066;0.000;0.000;2022-09-27T00:39:31;10.37;;;6.87;;
28958;SDS011;16066;0.000;0.000;2022-09-27T00:41:57;10.30;;;7.60;;
28958;SDS011;16066;0.000;0.000;2022-09-27T00:49:46;9.10;;;6.60;;
28958;SDS011;16066;0.000;0.000;2022-09-27T00:52:14;8.90;;;6.43;;
28958;SDS011;16066;0.000;0.000;2022-09-27T00:54:45;10.90;;;6.70;;
28958;SDS011;16066;0.000;0.000;2022-09-27T00:57:15;9.97;;;6.90;;
28958;SDS011;16066;0.000;0.000;2022-09-27T00:59:44;8.23;;;6.00;;
28958;SDS011;16066;0.000;0.000;2022-09-27T01:02:17;9.13;;;6.63;;
28958;SDS011;16066;0.000;0.000;2022-09-27T01:04:43;9.73;;;7.30;;
28958;SDS011;16066;0.000;0.000;2022-09-27T01:07:10;7.80;;;6.00;;
28958;SDS011;16066;0.000;0.000;2022-09-27T01:09:35;8.93;;;6.40;;
28958;SDS011;16066;0.000;0.000;2022-09-27T01:18:12;8.73;;;5.97;;
28958;SDS011;16066;0.000;0.000;2022-09-27T01:23:45;8.70;;;6.20;;
28958;SDS011;16066;0.000;0.000;2022-09-27T01:26:33;8.03;;;6.33;;
28958;SDS011;16066;0.000;0.000;2022-09-27T01:31:49;8.37;;;6.60;;
28958;SDS011;16066;0.000;0.000;2022-09-27T01:35:02;7.93;;;6.00;;
28958;SDS011;16066;0.000;0.000;2022-09-27T01:38:01;8.93;;;6.40;;
28958;SDS011;16066;0.000;0.000;2022-09-27T01:45:32;8.77;;;6.30;;
28958;SDS011;16066;0.000;0.000;2022-09-27T01:48:03;11.10;;;6.57;;
28958;SDS011;16066;0.000;0.000;2022-09-27T01:53:26;10.27;;;6.40;;
28958;SDS011;16066;0.000;0.000;2022-09-27T01:56:07;8.23;;;6.10;;
28958;SDS011;16066;0.000;0.000;2022-09-27T01:58:57;10.30;;;6.47;;
28958;SDS011;16066;0.000;0.000;2022-09-27T02:01:34;9.33;;;6.43;;
28958;SDS011;16066;0.000;0.000;2022-09-27T02:04:01;8.83;;;7.17;;
28958;SDS011;16066;0.000;0.000;2022-09-27T02:06:30;8.57;;;6.13;;
28958;SDS011;16066;0.000;0.000;2022-09-27T02:09:02;8.70;;;6.83;;
28958;SDS011;16066;0.000;0.000;2022-09-27T02:11:40;9.43;;;5.97;;
28958;SDS011;16066;0.000;0.000;2022-09-27T02:14:36;8.43;;;6.03;;
28958;SDS011;16066;0.000;0.000;2022-09-27T02:22:41;9.00;;;6.43;;
28958;SDS011;16066;0.000;0.000;2022-09-27T02:30:24;9.07;;;6.37;;
28958;SDS011;16066;0.000;0.000;2022-09-27T02:32:50;9.30;;;7.30;;
28958;SDS011;16066;0.000;0.000;2022-09-27T02:35:18;7.27;;;5.67;;
28958;SDS011;16066;0.000;0.000;2022-09-27T02:37:48;9.43;;;7.13;;
28958;SDS011;16066;0.000;0.000;2022-09-27T02:40:15;8.40;;;6.20;;
28958;SDS011;16066;0.000;0.000;2022-09-27T02:42:41;7.97;;;6.10;;
28958;SDS011;16066;0.000;0.000;2022-09-27T02:45:08;8.30;;;6.00;;
28958;SDS011;16066;0.000;0.000;2022-09-27T02:47:54;9.73;;;7.33;;
28958;SDS011;16066;0.000;0.000;2022-09-27T02:53:02;7.90;;;6.37;;
28958;SDS011;16066;0.000;0.000;2022-09-27T03:00:55;8.33;;;6.03;;
28958;SDS011;16066;0.000;0.000;2022-09-27T03:03:37;9.20;;;6.00;;
28958;SDS011;16066;0.000;0.000;2022-09-27T03:06:10;6.40;;;5.50;;
28958;SDS011;16066;0.000;0.000;2022-09-27T03:08:38;10.50;;;5.70;;
28958;SDS011;16066;0.000;0.000;2022-09-27T03:11:05;8.63;;;5.83;;
28958;SDS011;16066;0.000;0.000;2022-09-27T03:13:30;8.50;;;6.37;;
28958;SDS011;16066;0.000;0.000;2022-09-27T03:15:57;11.63;;;7.17;;
28958;SDS011;16066;0.000;0.000;2022-09-27T03:18:23;8.03;;;6.00;;
28958;SDS011;16066;0.000;0.000;2022-09-27T03:20:48;7.27;;;5.30;;
28958;SDS011;16066;0.000;0.000;2022-09-27T03:23:16;8.80;;;6.00;;
28958;SDS011;16066;0.000;0.000;2022-09-27T03:25:41;9.63;;;6.30;;
28958;SDS011;16066;0.000;0.000;2022-09-27T03:28:07;7.60;;;5.90;;
28958;SDS011;16066;0.000;0.000;2022-09-27T03:30:33;8.17;;;6.13;;
28958;SDS011;16066;0.000;0.000;2022-09-27T03:32:59;7.37;;;5.90;;
28958;SDS011;16066;0.000;0.000;2022-09-27T03:35:25;10.77;;;6.60;;
28958;SDS011;16066;0.000;0.000;2022-09-27T03:37:50;9.47;;;5.97;;
28958;SDS011;16066;0.000;0.000;2022-09-27T03:40:16;8.30;;;6.20;;
28958;SDS011;16066;0.000;0.000;2022-09-27T03:42:41;7.60;;;6.07;;
28958;SDS011;16066;0.000;0.000;2022-09-27T03:45:07;8.70;;;6.30;;
28958;SDS011;16066;0.000;0.000;2022-09-27T03:47:33;8.60;;;6.50;;
28958;SDS011;16066;0.000;0.000;2022-09-27T03:49:59;8.70;;;6.17;;
28958;SDS011;16066;0.000;0.000;2022-09-27T03:52:24;8.30;;;6.40;;
28958;SDS011;16066;0.000;0.000;2022-09-27T03:54:50;9.50;;;6.70;;
28958;SDS011;16066;0.000;0.000;2022-09-27T03:57:15;10.60;;;6.90;;
28958;SDS011;16066;0.000;0.000;2022-09-27T03:59:41;8.40;;;6.20;;
28958;SDS011;16066;0.000;0.000;2022-09-27T04:02:06;8.47;;;6.33;;
28958;SDS011;16066;0.000;0.000;2022-09-27T04:04:32;8.80;;;6.93;;
28958;SDS011;16066;0.000;0.000;2022-09-27T04:06:57;10.47;;;6.83;;
28958;SDS011;16066;0.000;0.000;2022-09-27T04:09:23;11.13;;;6.33;;
28958;SDS011;16066;0.000;0.000;2022-09-27T04:11:49;9.20;;;6.30;;
28958;SDS011;16066;0.000;0.000;2022-09-27T04:14:14;7.87;;;6.20;;
28958;SDS011;16066;0.000;0.000;2022-09-27T04:16:40;8.90;;;6.27;;
28958;SDS011;16066;0.000;0.000;2022-09-27T04:19:06;9.70;;;6.37;;
28958;SDS011;16066;0.000;0.000;2022-09-27T04:21:33;9.27;;;6.60;;
28958;SDS011;16066;0.000;0.000;2022-09-27T04:23:59;8.20;;;5.80;;
28958;SDS011;16066;0.000;0.000;2022-09-27T04:26:25;8.53;;;5.63;;
28958;SDS011;16066;0.000;0.000;2022-09-27T04:28:51;8.10;;;5.70;;
28958;SDS011;16066;0.000;0.000;2022-09-27T04:31:17;8.40;;;6.17;;
28958;SDS011;16066;0.000;0.000;2022-09-27T04:33:43;7.60;;;6.07;;
28958;SDS011;16066;0.000;0.000;2022-09-27T04:36:10;8.17;;;6.00;;
28958;SDS011;16066;0.000;0.000;2022-09-27T04:38:50;8.60;;;6.40;;
28958;SDS011;16066;0.000;0.000;2022-09-27T04:41:17;9.23;;;5.80;;
28958;SDS011;16066;0.000;0.000;2022-09-27T04:43:43;9.70;;;6.47;;
28958;SDS011;16066;0.000;0.000;2022-09-27T04:46:09;9.23;;;6.63;;
28958;SDS011;16066;0.000;0.000;2022-09-27T04:48:34;8.97;;;6.40;;
28958;SDS011;16066;0.000;0.000;2022-09-27T04:51:01;9.23;;;6.17;;
28958;SDS011;16066;0.000;0.000;2022-09-27T04:53:27;9.13;;;6.20;;
28958;SDS011;16066;0.000;0.000;2022-09-27T04:55:53;8.87;;;5.83;;
28958;SDS011;16066;0.000;0.000;2022-09-27T04:58:20;8.53;;;6.00;;
28958;SDS011;16066;0.000;0.000;2022-09-27T05:00:46;7.03;;;5.70;;
28958;SDS011;16066;0.000;0.000;2022-09-27T05:03:12;9.03;;;5.40;;
28958;SDS011;16066;0.000;0.000;2022-09-27T05:05:39;9.67;;;6.67;;
28958;SDS011;16066;0.000;0.000;2022-09-27T05:08:05;9.73;;;6.87;;
28958;SDS011;16066;0.000;0.000;2022-09-27T05:10:31;10.57;;;5.80;;
28958;SDS011;16066;0.000;0.000;2022-09-27T05:12:57;10.60;;;5.63;;
28958;SDS011;16066;0.000;0.000;2022-09-27T05:15:22;8.73;;;5.80;;
28958;SDS011;16066;0.000;0.000;2022-09-27T05:17:50;8.73;;;6.13;;
28958;SDS011;16066;0.000;0.000;2022-09-27T05:20:16;8.90;;;6.00;;
28958;SDS011;16066;0.000;0.000;2022-09-27T05:22:41;8.67;;;6.30;;
28958;SDS011;16066;0.000;0.000;2022-09-27T05:25:07;7.97;;;5.50;;
28958;SDS011;16066;0.000;0.000;2022-09-27T05:27:33;11.40;;;6.20;;
28958;SDS011;16066;0.000;0.000;2022-09-27T05:29:59;9.13;;;6.03;;
28958;SDS011;16066;0.000;0.000;2022-09-27T05:32:26;9.70;;;6.17;;
28958;SDS011;16066;0.000;0.000;2022-09-27T05:34:51;7.40;;;5.60;;
28958;SDS011;16066;0.000;0.000;2022-09-27T05:37:20;6.40;;;5.30;;
28958;SDS011;16066;0.000;0.000;2022-09-27T05:39:46;8.37;;;4.50;;
28958;SDS011;16066;0.000;0.000;2022-09-27T05:42:12;6.93;;;5.40;;
28958;SDS011;16066;0.000;0.000;2022-09-27T05:44:39;8.93;;;5.83;;
28958;SDS011;16066;0.000;0.000;2022-09-27T05:47:06;9.30;;;6.03;;
28958;SDS011;16066;0.000;0.000;2022-09-27T05:49:32;9.20;;;5.77;;
28958;SDS011;16066;0.000;0.000;2022-09-27T05:51:58;7.47;;;5.60;;
28958;SDS011;16066;0.000;0.000;2022-09-27T05:54:24;5.33;;;4.60;;
28958;SDS011;16066;0.000;0.000;2022-09-27T05:56:53;7.30;;;4.67;;
28958;SDS011;16066;0.000;0.000;2022-09-27T05:59:22;8.27;;;5.50;;
28958;SDS011;16066;0.000;0.000;2022-09-27T06:01:49;8.80;;;5.40;;
28958;SDS011;16066;0.000;0.000;2022-09-27T06:04:15;7.63;;;5.53;;
28958;SDS011;16066;0.000;0.000;2022-09-27T06:06:41;8.40;;;5.53;;
28958;SDS011;16066;0.000;0.000;2022-09-27T06:09:10;12.77;;;5.13;;
28958;SDS011;16066;0.000;0.000;2022-09-27T06:11:37;9.17;;;5.60;;
28958;SDS011;16066;0.000;0.000;2022-09-27T06:14:03;9.50;;;6.00;;
28958;SDS011;16066;0.000;0.000;2022-09-27T06:16:29;9.27;;;5.47;;
28958;SDS011;16066;0.000;0.000;2022-09-27T06:18:54;13.13;;;5.77;;
28958;SDS011;16066;0.000;0.000;2022-09-27T06:21:21;10.27;;;5.10;;
28958;SDS011;16066;0.000;0.000;2022-09-27T06:23:46;11.97;;;5.53;;
28958;SDS011;16066;0.000;0.000;2022-09-27T06:26:12;12.07;;;6.70;;
28958;SDS011;16066;0.000;0.000;2022-09-27T06:28:38;14.97;;;6.87;;
28958;SDS011;16066;0.000;0.000;2022-09-27T06:31:04;9.47;;;5.40;;
28958;SDS011;16066;0.000;0.000;2022-09-27T06:33:32;10.80;;;5.63;;
28958;SDS011;16066;0.000;0.000;2022-09-27T06:36:05;11.33;;;5.50;;
28958;SDS011;16066;0.000;0.000;2022-09-27T06:38:31;14.03;;;5.47;;
28958;SDS011;16066;0.000;0.000;2022-09-27T06:41:01;8.00;;;5.50;;
28958;SDS011;16066;0.000;0.000;2022-09-27T06:43:28;8.43;;;5.30;;
28958;SDS011;16066;0.000;0.000;2022-09-27T06:45:57;7.50;;;5.30;;
28958;SDS011;16066;0.000;0.000;2022-09-27T06:48:30;9.13;;;6.07;;
28958;SDS011;16066;0.000;0.000;2022-09-27T06:50:56;7.53;;;5.30;;
28958;SDS011;16066;0.000;0.000;2022-09-27T06:53:22;9.33;;;5.17;;
28958;SDS011;16066;0.000;0.000;2022-09-27T06:55:48;13.20;;;5.83;;
28958;SDS011;16066;0.000;0.000;2022-09-27T06:58:15;9.93;;;5.43;;
28958;SDS011;16066;0.000;0.000;2022-09-27T07:00:59;8.93;;;5.00;;
28958;SDS011;16066;0.000;0.000;2022-09-27T07:03:25;8.47;;;5.30;;
28958;SDS011;16066;0.000;0.000;2022-09-27T07:05:57;7.97;;;5.27;;
28958;SDS011;16066;0.000;0.000;2022-09-27T07:08:24;9.97;;;5.03;;
28958;SDS011;16066;0.000;0.000;2022-09-27T07:10:52;10.63;;;5.63;;
28958;SDS011;16066;0.000;0.000;2022-09-27T07:13:19;9.80;;;5.50;;
28958;SDS011;16066;0.000;0.000;2022-09-27T07:15:45;9.70;;;5.27;;
28958;SDS011;16066;0.000;0.000;2022-09-27T07:18:11;9.37;;;5.27;;
28958;SDS011;16066;0.000;0.000;2022-09-27T07:20:36;7.27;;;4.43;;
28958;SDS011;16066;0.000;0.000;2022-09-27T07:23:02;10.40;;;6.17;;
28958;SDS011;16066;0.000;0.000;2022-09-27T07:25:29;6.47;;;4.70;;
28958;SDS011;16066;0.000;0.000;2022-09-27T07:27:59;7.50;;;4.80;;
28958;SDS011;16066;0.000;0.000;2022-09-27T07:30:29;8.33;;;4.93;;
28958;SDS011;16066;0.000;0.000;2022-09-27T07:32:56;7.53;;;5.07;;
28958;SDS011;16066;0.000;0.000;2022-09-27T07:35:23;9.40;;;4.60;;
28958;SDS011;16066;0.000;0.000;2022-09-27T07:37:49;6.93;;;4.37;;
28958;SDS011;16066;0.000;0.000;2022-09-27T07:40:16;9.40;;;4.77;;
28958;SDS011;16066;0.000;0.000;2022-09-27T07:42:42;6.60;;;4.37;;
28958;SDS011;16066;0.000;0.000;2022-09-27T07:45:08;10.43;;;5.10;;
28958;SDS011;16066;0.000;0.000;2022-09-27T07:47:36;8.37;;;5.00;;
28958;SDS011;16066;0.000;0.000;2022-09-27T07:50:06;9.63;;;4.50;;
28958;SDS011;16066;0.000;0.000;2022-09-27T07:52:40;9.30;;;4.70;;
28958;SDS011;16066;0.000;0.000;2022-09-27T07:55:10;6.53;;;4.80;;
28958;SDS011;16066;0.000;0.000;2022-09-27T07:57:38;7.70;;;4.20;;
28958;SDS011;16066;0.000;0.000;2022-09-27T08:00:06;7.13;;;5.13;;
28958;SDS011;16066;0.000;0.000;2022-09-27T10:59:14;7.50;;;4.33;;
28958;SDS011;16066;0.000;0.000;2022-09-27T11:01:43;13.20;;;5.40;;
28958;SDS011;16066;0.000;0.000;2022-09-27T11:04:17;7.93;;;4.80;;
28958;SDS011;16066;0.000;0.000;2022-09-27T11:06:47;6.93;;;4.10;;
28958;SDS011;16066;0.000;0.000;2022-09-27T11:09:21;7.50;;;4.70;;
28958;SDS011;16066;0.000;0.000;2022-09-27T11:11:50;6.87;;;4.80;;
28958;SDS011;16066;0.000;0.000;2022-09-27T11:14:34;5.27;;;4.00;;
28958;SDS011;16066;0.000;0.000;2022-09-27T11:17:14;7.63;;;4.53;;
28958;SDS011;16066;0.000;0.000;2022-09-27T11:19:51;6.27;;;4.33;;
28958;SDS011;16066;0.000;0.000;2022-09-27T11:25:34;9.27;;;4.93;;
28958;SDS011;16066;0.000;0.000;2022-09-27T11:46:53;4.50;;;3.90;;
28958;SDS011;16066;0.000;0.000;2022-09-27T11:49:38;5.53;;;3.67;;
28958;SDS011;16066;0.000;0.000;2022-09-27T12:00:16;3.87;;;3.47;;
28958;SDS011;16066;0.000;0.000;2022-09-27T12:11:26;3.60;;;2.90;;
28958;SDS011;16066;0.000;0.000;2022-09-27T12:14:00;3.73;;;3.33;;
28958;SDS011;16066;0.000;0.000;2022-09-27T12:16:29;7.03;;;4.00;;
28958;SDS011;16066;0.000;0.000;2022-09-27T12:18:56;4.13;;;3.23;;
28958;SDS011;16066;0.000;0.000;2022-09-27T12:21:23;5.13;;;3.80;;
28958;SDS011;16066;0.000;0.000;2022-09-27T12:23:52;4.70;;;3.40;;
28958;SDS011;16066;0.000;0.000;2022-09-27T12:26:30;3.97;;;3.30;;
28958;SDS011;16066;0.000;0.000;2022-09-27T12:29:04;4.03;;;3.23;;
28958;SDS011;16066;0.000;0.000;2022-09-27T12:31:47;4.77;;;3.37;;
28958;SDS011;16066;0.000;0.000;2022-09-27T12:34:36;4.40;;;3.67;;
28958;SDS011;16066;0.000;0.000;2022-09-27T12:37:04;6.90;;;3.67;;
28958;SDS011;16066;0.000;0.000;2022-09-27T12:39:47;5.63;;;4.07;;
28958;SDS011;16066;0.000;0.000;2022-09-27T12:42:26;3.80;;;3.40;;
28958;SDS011;16066;0.000;0.000;2022-09-27T12:44:56;4.70;;;3.23;;
28958;SDS011;16066;0.000;0.000;2022-09-27T12:47:37;5.23;;;3.83;;
28958;SDS011;16066;0.000;0.000;2022-09-27T12:50:34;4.80;;;3.30;;
28958;SDS011;16066;0.000;0.000;2022-09-27T12:53:14;9.50;;;3.73;;
28958;SDS011;16066;0.000;0.000;2022-09-27T13:03:42;4.47;;;3.70;;
28958;SDS011;16066;0.000;0.000;2022-09-27T13:06:28;5.73;;;4.30;;
28958;SDS011;16066;0.000;0.000;2022-09-27T13:12:07;6.60;;;4.20;;
28958;SDS011;16066;0.000;0.000;2022-09-27T13:14:43;5.00;;;3.70;;
28958;SDS011;16066;0.000;0.000;2022-09-27T13:17:33;5.30;;;3.87;;
28958;SDS011;16066;0.000;0.000;2022-09-27T13:20:24;6.07;;;3.70;;
28958;SDS011;16066;0.000;0.000;2022-09-27T13:22:59;5.03;;;3.70;;
28958;SDS011;16066;0.000;0.000;2022-09-27T13:30:56;7.30;;;4.73;;
28958;SDS011;16066;0.000;0.000;2022-09-27T13:33:45;5.13;;;4.10;;
28958;SDS011;16066;0.000;0.000;2022-09-27T13:41:25;5.90;;;4.27;;
28958;SDS011;16066;0.000;0.000;2022-09-27T13:43:58;6.63;;;4.10;;
28958;SDS011;16066;0.000;0.000;2022-09-27T13:46:33;5.60;;;4.33;;
28958;SDS011;16066;0.000;0.000;2022-09-27T13:49:13;5.27;;;4.27;;
28958;SDS011;16066;0.000;0.000;2022-09-27T13:51:45;5.43;;;4.10;;
28958;SDS011;16066;0.000;0.000;2022-09-27T13:57:02;5.57;;;4.27;;
28958;SDS011;16066;0.000;0.000;2022-09-27T14:02:18;5.60;;;4.00;;
28958;SDS011;16066;0.000;0.000;2022-09-27T14:04:49;5.10;;;3.80;;
28958;SDS011;16066;0.000;0.000;2022-09-27T14:07:22;8.13;;;4.00;;
28958;SDS011;16066;0.000;0.000;2022-09-27T14:09:51;5.50;;;4.50;;
28958;SDS011;16066;0.000;0.000;2022-09-27T14:12:28;7.57;;;4.60;;
28958;SDS011;16066;0.000;0.000;2022-09-27T14:14:57;7.13;;;4.73;;
28958;SDS011;16066;0.000;0.000;2022-09-27T14:17:24;5.20;;;4.10;;
28958;SDS011;16066;0.000;0.000;2022-09-27T14:19:50;5.37;;;4.20;;
28958;SDS011;16066;0.000;0.000;2022-09-27T14:22:18;6.97;;;4.27;;
28958;SDS011;16066;0.000;0.000;2022-09-27T14:25:11;7.00;;;4.10;;
28958;SDS011;16066;0.000;0.000;2022-09-27T14:27:41;6.00;;;4.27;;
28958;SDS011;16066;0.000;0.000;2022-09-27T14:30:12;5.53;;;3.70;;
28958;SDS011;16066;0.000;0.000;2022-09-27T14:32:58;6.13;;;4.20;;
28958;SDS011;16066;0.000;0.000;2022-09-27T14:35:25;7.50;;;4.63;;
28958;SDS011;16066;0.000;0.000;2022-09-27T14:38:15;6.90;;;4.87;;
28958;SDS011;16066;0.000;0.000;2022-09-27T14:41:04;8.60;;;5.63;;
28958;SDS011;16066;0.000;0.000;2022-09-27T14:43:31;6.90;;;4.50;;
28958;SDS011;16066;0.000;0.000;2022-09-27T14:45:59;6.40;;;4.53;;
28958;SDS011;16066;0.000;0.000;2022-09-27T14:48:30;9.03;;;5.20;;
28958;SDS011;16066;0.000;0.000;2022-09-27T14:50:59;8.07;;;4.70;;
28958;SDS011;16066;0.000;0.000;2022-09-27T14:53:49;6.23;;;4.67;;
28958;SDS011;16066;0.000;0.000;2022-09-27T14:56:29;7.17;;;4.97;;
28958;SDS011;16066;0.000;0.000;2022-09-27T14:59:03;6.13;;;4.00;;
28958;SDS011;16066;0.000;0.000;2022-09-27T15:01:35;6.57;;;4.77;;
28958;SDS011;16066;0.000;0.000;2022-09-27T15:04:04;7.10;;;4.70;;
28958;SDS011;16066;0.000;0.000;2022-09-27T15:06:34;6.80;;;5.53;;
28958;SDS011;16066;0.000;0.000;2022-09-27T15:09:01;7.57;;;4.70;;
28958;SDS011;16066;0.000;0.000;2022-09-27T15:11:29;7.50;;;4.90;;
28958;SDS011;16066;0.000;0.000;2022-09-27T15:13:57;6.43;;;4.80;;
28958;SDS011;16066;0.000;0.000;2022-09-27T15:16:25;5.73;;;4.90;;
28958;SDS011;16066;0.000;0.000;2022-09-27T15:18:58;8.47;;;5.13;;
28958;SDS011;16066;0.000;0.000;2022-09-27T15:24:01;8.87;;;5.37;;
28958;SDS011;16066;0.000;0.000;2022-09-27T15:26:38;8.17;;;5.80;;
28958;SDS011;16066;0.000;0.000;2022-09-27T15:29:23;9.30;;;5.80;;
28958;SDS011;16066;0.000;0.000;2022-09-27T15:32:03;7.10;;;5.23;;
28958;SDS011;16066;0.000;0.000;2022-09-27T15:34:30;10.90;;;5.00;;
28958;SDS011;16066;0.000;0.000;2022-09-27T15:36:59;8.17;;;5.10;;
28958;SDS011;16066;0.000;0.000;2022-09-27T15:39:39;9.37;;;5.63;;
28958;SDS011;16066;0.000;0.000;2022-09-27T15:42:07;7.60;;;5.50;;
28958;SDS011;16066;0.000;0.000;2022-09-27T15:52:41;10.30;;;6.33;;
28958;SDS011;16066;0.000;0.000;2022-09-27T15:55:12;8.93;;;6.00;;
28958;SDS011;16066;0.000;0.000;2022-09-27T15:57:38;13.27;;;6.67;;
28958;SDS011;16066;0.000;0.000;2022-09-27T16:00:05;16.13;;;6.33;;
28958;SDS011;16066;0.000;0.000;2022-09-27T16:02:31;11.87;;;6.33;;
28958;SDS011;16066;0.000;0.000;2022-09-27T16:04:57;15.13;;;8.80;;
28958;SDS011;16066;0.000;0.000;2022-09-27T16:07:22;12.30;;;7.37;;
28958;SDS011;16066;0.000;0.000;2022-09-27T16:09:48;12.73;;;7.10;;
28958;SDS011;16066;0.000;0.000;2022-09-27T16:12:16;11.60;;;8.33;;
28958;SDS011;16066;0.000;0.000;2022-09-27T16:14:41;12.30;;;7.87;;
28958;SDS011;16066;0.000;0.000;2022-09-27T16:17:08;13.10;;;7.47;;
28958;SDS011;16066;0.000;0.000;2022-09-27T16:19:34;12.70;;;7.67;;
28958;SDS011;16066;0.000;0.000;2022-09-27T16:22:00;14.33;;;8.53;;
28958;SDS011;16066;0.000;0.000;2022-09-27T16:24:27;12.60;;;7.70;;
28958;SDS011;16066;0.000;0.000;2022-09-27T16:26:53;13.93;;;8.17;;
28958;SDS011;16066;0.000;0.000;2022-09-27T16:29:19;15.67;;;7.87;;
28958;SDS011;16066;0.000;0.000;2022-09-27T16:31:44;19.63;;;7.87;;
28958;SDS011;16066;0.000;0.000;2022-09-27T16:34:11;16.70;;;8.40;;
28958;SDS011;16066;0.000;0.000;2022-09-27T16:36:37;13.50;;;7.77;;
28958;SDS011;16066;0.000;0.000;2022-09-27T16:39:05;18.00;;;9.20;;
28958;SDS011;16066;0.000;0.000;2022-09-27T16:41:31;12.13;;;7.50;;
28958;SDS011;16066;0.000;0.000;2022-09-27T16:44:07;17.77;;;8.40;;
28958;SDS011;16066;0.000;0.000;2022-09-27T16:46:34;13.27;;;8.83;;
28958;SDS011;16066;0.000;0.000;2022-09-27T16:49:03;15.90;;;8.60;;
28958;SDS011;16066;0.000;0.000;2022-09-27T16:51:28;14.50;;;8.57;;
28958;SDS011;16066;0.000;0.000;2022-09-27T16:54:12;21.13;;;8.27;;
28958;SDS011;16066;0.000;0.000;2022-09-27T16:56:39;14.47;;;8.43;;
28958;SDS011;16066;0.000;0.000;2022-09-27T16:59:05;21.33;;;9.17;;
28958;SDS011;16066;0.000;0.000;2022-09-27T17:01:31;27.00;;;9.50;;
28958;SDS011;16066;0.000;0.000;2022-09-27T17:03:57;21.13;;;9.80;;
28958;SDS011;16066;0.000;0.000;2022-09-27T17:06:23;20.40;;;10.67;;
28958;SDS011;16066;0.000;0.000;2022-09-27T17:08:52;29.10;;;12.00;;
28958;SDS011;16066;0.000;0.000;2022-09-27T17:11:18;28.17;;;12.43;;
28958;SDS011;16066;0.000;0.000;2022-09-27T17:13:44;23.90;;;12.53;;
28958;SDS011;16066;0.000;0.000;2022-09-27T17:16:13;30.17;;;13.33;;
28958;SDS011;16066;0.000;0.000;2022-09-27T17:18:39;22.50;;;12.87;;
28958;SDS011;16066;0.000;0.000;2022-09-27T17:21:05;26.40;;;14.93;;
28958;SDS011;16066;0.000;0.000;2022-09-27T17:23:32;28.10;;;12.93;;
28958;SDS011;16066;0.000;0.000;2022-09-27T17:26:02;25.23;;;13.93;;
28958;SDS011;16066;0.000;0.000;2022-09-27T17:28:29;26.73;;;15.57;;
28958;SDS011;16066;0.000;0.000;2022-09-27T17:31:00;31.30;;;16.97;;
28958;SDS011;16066;0.000;0.000;2022-09-27T17:33:26;26.13;;;15.77;;
28958;SDS011;16066;0.000;0.000;2022-09-27T17:35:59;28.70;;;17.40;;
28958;SDS011;16066;0.000;0.000;2022-09-27T17:38:26;33.03;;;17.13;;
28958;SDS011;16066;0.000;0.000;2022-09-27T17:41:03;33.10;;;17.53;;
28958;SDS011;16066;0.000;0.000;2022-09-27T17:43:35;34.13;;;17.33;;
28958;SDS011;16066;0.000;0.000;2022-09-27T17:46:03;32.10;;;16.80;;
28958;SDS011;16066;0.000;0.000;2022-09-27T17:48:34;32.30;;;17.73;;
28958;SDS011;16066;0.000;0.000;2022-09-27T17:51:19;26.10;;;15.73;;
28958;SDS011;16066;0.000;0.000;2022-09-27T17:53:46;26.73;;;16.40;;
28958;SDS011;16066;0.000;0.000;2022-09-27T17:56:12;29.27;;;15.67;;
28958;SDS011;16066;0.000;0.000;2022-09-27T17:58:38;36.40;;;17.57;;
28958;SDS011;16066;0.000;0.000;2022-09-27T18:01:10;28.33;;;15.80;;
28958;SDS011;16066;0.000;0.000;2022-09-27T18:03:36;25.00;;;14.17;;
28958;SDS011;16066;0.000;0.000;2022-09-27T18:06:07;27.07;;;15.33;;
28958;SDS011;16066;0.000;0.000;2022-09-27T18:08:34;22.13;;;13.27;;
28958;SDS011;16066;0.000;0.000;2022-09-27T18:11:13;27.13;;;16.30;;
28958;SDS011;16066;0.000;0.000;2022-09-27T18:13:40;26.63;;;15.53;;
28958;SDS011;16066;0.000;0.000;2022-09-27T18:16:11;24.73;;;13.87;;
28958;SDS011;16066;0.000;0.000;2022-09-27T18:18:40;23.20;;;13.50;;
28958;SDS011;16066;0.000;0.000;2022-09-27T18:21:07;28.00;;;14.03;;
28958;SDS011;16066;0.000;0.000;2022-09-27T18:23:38;23.00;;;13.37;;
28958;SDS011;16066;0.000;0.000;2022-09-27T18:26:05;24.63;;;13.93;;
28958;SDS011;16066;0.000;0.000;2022-09-27T18:28:34;25.00;;;13.53;;
28958;SDS011;16066;0.000;0.000;2022-09-27T18:31:03;25.63;;;15.17;;
28958;SDS011;16066;0.000;0.000;2022-09-27T18:33:30;25.63;;;13.30;;
28958;SDS011;16066;0.000;0.000;2022-09-27T18:36:01;22.87;;;13.60;;
28958;SDS011;16066;0.000;0.000;2022-09-27T18:38:31;23.17;;;13.60;;
28958;SDS011;16066;0.000;0.000;2022-09-27T18:41:03;24.40;;;13.30;;
28958;SDS011;16066;0.000;0.000;2022-09-27T18:43:32;21.90;;;12.67;;
28958;SDS011;16066;0.000;0.000;2022-09-27T18:45:59;19.70;;;13.13;;
28958;SDS011;16066;0.000;0.000;2022-09-27T18:48:26;28.43;;;13.17;;
28958;SDS011;16066;0.000;0.000;2022-09-27T18:50:51;27.43;;;12.70;;
28958;SDS011;16066;0.000;0.000;2022-09-27T18:53:17;19.90;;;12.10;;
28958;SDS011;16066;0.000;0.000;2022-09-27T18:55:42;20.33;;;12.27;;
28958;SDS011;16066;0.000;0.000;2022-09-27T18:58:08;19.00;;;11.83;;
28958;SDS011;16066;0.000;0.000;2022-09-27T19:00:38;24.00;;;12.20;;
28958;SDS011;16066;0.000;0.000;2022-09-27T19:03:04;21.93;;;12.40;;
28958;SDS011;16066;0.000;0.000;2022-09-27T19:05:29;23.60;;;12.77;;
28958;SDS011;16066;0.000;0.000;2022-09-27T19:07:55;21.13;;;11.63;;
28958;SDS011;16066;0.000;0.000;2022-09-27T19:10:20;20.13;;;12.17;;
28958;SDS011;16066;0.000;0.000;2022-09-27T19:12:46;17.90;;;11.37;;
28958;SDS011;16066;0.000;0.000;2022-09-27T19:15:12;23.90;;;11.43;;
28958;SDS011;16066;0.000;0.000;2022-09-27T19:17:37;20.13;;;11.43;;
28958;SDS011;16066;0.000;0.000;2022-09-27T19:20:03;18.77;;;12.10;;
28958;SDS011;16066;0.000;0.000;2022-09-27T19:22:31;19.60;;;11.20;;
28958;SDS011;16066;0.000;0.000;2022-09-27T19:24:57;17.17;;;11.30;;
28958;SDS011;16066;0.000;0.000;2022-09-27T19:27:22;18.20;;;11.67;;
28958;SDS011;16066;0.000;0.000;2022-09-27T19:29:48;16.93;;;11.47;;
28958;SDS011;16066;0.000;0.000;2022-09-27T19:32:14;20.17;;;11.80;;
28958;SDS011;16066;0.000;0.000;2022-09-27T19:34:39;18.07;;;10.47;;
28958;SDS011;16066;0.000;0.000;2022-09-27T19:37:05;16.30;;;10.40;;
28958;SDS011;16066;0.000;0.000;2022-09-27T19:39:30;22.90;;;11.10;;
28958;SDS011;16066;0.000;0.000;2022-09-27T19:41:55;17.53;;;11.20;;
28958;SDS011;16066;0.000;0.000;2022-09-27T19:44:21;18.27;;;10.87;;
28958;SDS011;16066;0.000;0.000;2022-09-27T19:46:47;17.87;;;10.57;;
28958;SDS011;16066;0.000;0.000;2022-09-27T19:49:12;17.87;;;10.80;;
28958;SDS011;16066;0.000;0.000;2022-09-27T19:51:38;16.83;;;10.53;;
28958;SDS011;16066;0.000;0.000;2022-09-27T19:54:03;14.60;;;9.97;;
28958;SDS011;16066;0.000;0.000;2022-09-27T19:56:29;18.67;;;10.80;;
28958;SDS011;16066;0.000;0.000;2022-09-27T19:58:55;20.90;;;11.93;;
28958;SDS011;16066;0.000;0.000;2022-09-27T20:01:24;18.00;;;10.20;;
28958;SDS011;16066;0.000;0.000;2022-09-27T20:03:50;18.90;;;10.77;;